Antioch, Nebraska
Current Conditions -  °F | °C
As of 5:53 AM on Friday 28 Nov 2014 (Local Time) from KAIA Reporting Station
Clear Clear  
Wind Chill: 26°   Ceiling: Unl
Heat Index: 35°   Visibility: 10mi
Dew Point: 25°   Wind: 14mph
Humidity: 67%   Direction: 220°SW
Pressure: 29.81"   Gusts: NA
Location:  42.1734°N, 102.461°W
Report Text: KAIA 281253Z AUTO 22012KT 10SM CLR 02/M04 A2981 RMK AO2 SLP107 T00171039
Loading
Personal Weather Stations






























Interactive Weather Map New forecast layout! Learn more

10-Day Weather Forecast

Advertisements
Track Severe Weather on mobile